createdAt,value
2019-01-25T00:00:02.198Z,-5.30
2019-01-25T00:02:34.098Z,-5.30
2019-01-25T00:05:05.522Z,-5.30
2019-01-25T00:07:35.765Z,-5.30
2019-01-25T00:10:07.350Z,-5.30
2019-01-25T00:12:38.985Z,-5.30
2019-01-25T00:15:09.437Z,-5.30
2019-01-25T00:17:39.845Z,-5.30
2019-01-25T00:20:10.293Z,-5.20
2019-01-25T00:22:40.451Z,-5.30
2019-01-25T00:25:10.751Z,-5.20
2019-01-25T00:27:40.913Z,-5.20
2019-01-25T00:30:12.577Z,-5.30
2019-01-25T00:32:42.693Z,-5.20
2019-01-25T00:35:13.047Z,-5.20
2019-01-25T00:37:43.295Z,-5.20
2019-01-25T00:40:14.322Z,-5.20
2019-01-25T00:42:44.509Z,-5.20
2019-01-25T00:45:14.974Z,-5.20
2019-01-25T00:47:45.166Z,-5.10
2019-01-25T00:50:17.609Z,-5.10
2019-01-25T00:52:48.260Z,-5.10
2019-01-25T00:55:18.371Z,-5.10
2019-01-25T00:57:48.674Z,-5.10
2019-01-25T01:00:21.575Z,-5.10
2019-01-25T01:02:51.819Z,-5.10
2019-01-25T01:05:23.354Z,-5.10
2019-01-25T01:07:53.515Z,-5.10
2019-01-25T01:10:23.660Z,-5.10
2019-01-25T01:12:53.841Z,-5.00
2019-01-25T01:15:24.019Z,-5.10
2019-01-25T01:17:54.447Z,-5.10
2019-01-25T01:20:24.635Z,-5.10
2019-01-25T01:22:54.765Z,-5.10
2019-01-25T01:25:24.931Z,-5.10
2019-01-25T01:27:55.334Z,-5.10
2019-01-25T01:30:25.681Z,-5.10
2019-01-25T01:32:55.855Z,-5.10
2019-01-25T01:35:26.266Z,-5.10
2019-01-25T01:37:56.417Z,-5.20
2019-01-25T01:40:26.825Z,-5.30
2019-01-25T01:42:56.983Z,-5.30
2019-01-25T01:45:27.390Z,-5.40
2019-01-25T01:47:57.538Z,-5.40
2019-01-25T01:50:28.735Z,-5.40
2019-01-25T01:52:59.034Z,-5.40
2019-01-25T01:55:29.161Z,-5.50
2019-01-25T01:57:59.362Z,-5.50
2019-01-25T02:00:29.615Z,-5.50
2019-01-25T02:03:00.119Z,-5.60
2019-01-25T02:05:30.281Z,-5.60
2019-01-25T02:08:00.440Z,-5.60
2019-01-25T02:10:30.662Z,-5.60
2019-01-25T02:13:00.910Z,-5.70
2019-01-25T02:15:31.037Z,-5.60
2019-01-25T02:18:01.421Z,-5.50
2019-01-25T02:20:31.969Z,-5.60
2019-01-25T02:23:02.155Z,-5.70
2019-01-25T02:25:32.302Z,-5.70
2019-01-25T02:28:02.486Z,-5.70
2019-01-25T02:30:32.719Z,-5.60
2019-01-25T02:33:02.860Z,-5.70
2019-01-25T02:35:33.392Z,-5.60
2019-01-25T02:38:03.666Z,-5.60
2019-01-25T02:40:39.043Z,-5.70
2019-01-25T02:43:05.854Z,-5.70
2019-01-25T02:45:36.026Z,-5.70
2019-01-25T02:48:06.154Z,-5.60
2019-01-25T02:50:36.345Z,-5.60
2019-01-25T02:53:06.534Z,-5.60
2019-01-25T02:55:36.927Z,-5.60
2019-01-25T02:58:07.141Z,-5.60
2019-01-25T03:00:37.394Z,-5.60
2019-01-25T03:03:07.714Z,-5.60
2019-01-25T03:05:37.840Z,-5.50
2019-01-25T03:08:07.884Z,-5.60
2019-01-25T03:10:38.099Z,-5.60
2019-01-25T03:13:08.222Z,-5.60
2019-01-25T03:15:38.597Z,-5.60
2019-01-25T03:18:08.751Z,-5.60
2019-01-25T03:20:38.882Z,-5.60
2019-01-25T03:23:09.042Z,-5.60
2019-01-25T03:25:39.257Z,-5.60
2019-01-25T03:28:09.442Z,-5.60
2019-01-25T03:30:39.532Z,-5.60
2019-01-25T03:33:09.694Z,-5.60
2019-01-25T03:35:40.303Z,-5.60
2019-01-25T03:38:10.514Z,-5.60
2019-01-25T03:40:40.838Z,-5.60
2019-01-25T03:43:10.981Z,-5.60
2019-01-25T03:45:41.146Z,-5.60
2019-01-25T03:48:11.303Z,-5.60
2019-01-25T03:50:41.438Z,-5.60
2019-01-25T03:53:11.726Z,-5.70
2019-01-25T03:55:42.035Z,-5.60
2019-01-25T03:58:12.304Z,-5.70
2019-01-25T04:00:42.433Z,-5.70
2019-01-25T04:03:12.582Z,-5.60
2019-01-25T04:05:42.722Z,-5.60
2019-01-25T04:08:12.885Z,-5.60
2019-01-25T04:10:43.129Z,-5.60
2019-01-25T04:13:13.369Z,-5.60
2019-01-25T04:15:43.646Z,-5.60
2019-01-25T04:18:13.841Z,-5.60
2019-01-25T04:20:44.089Z,-5.60
2019-01-25T04:23:14.277Z,-5.50
2019-01-25T04:25:44.450Z,-5.50
2019-01-25T04:28:14.695Z,-5.50
2019-01-25T04:30:44.840Z,-5.50
2019-01-25T04:33:15.122Z,-5.50
2019-01-25T04:35:45.314Z,-5.50
2019-01-25T04:38:15.418Z,-5.60
2019-01-25T04:40:45.598Z,-5.50
2019-01-25T04:43:15.774Z,-5.50
2019-01-25T04:45:47.194Z,-5.40
2019-01-25T04:48:17.385Z,-5.50
2019-01-25T04:50:47.522Z,-5.50
2019-01-25T04:53:17.662Z,-5.50
2019-01-25T04:55:47.787Z,-5.50
2019-01-25T04:58:19.203Z,-5.50
2019-01-25T05:00:49.493Z,-5.60
2019-01-25T05:03:19.761Z,-5.50
2019-01-25T05:05:50.614Z,-5.60
2019-01-25T05:08:23.689Z,-5.50
2019-01-25T05:10:53.933Z,-5.50
2019-01-25T05:13:24.027Z,-5.50
2019-01-25T05:15:54.352Z,-5.50
2019-01-25T05:18:24.631Z,-5.50
2019-01-25T05:20:54.770Z,-5.40
2019-01-25T05:23:24.951Z,-5.50
2019-01-25T05:25:55.042Z,-5.40
2019-01-25T05:28:25.197Z,-5.40
2019-01-25T05:31:02.920Z,-5.40
2019-01-25T05:33:34.256Z,-5.40
2019-01-25T05:36:05.299Z,-5.40
2019-01-25T05:38:36.556Z,-5.40
2019-01-25T05:41:06.715Z,-5.40
2019-01-25T05:43:43.408Z,-5.40
2019-01-25T05:46:13.561Z,-5.40
2019-01-25T05:48:43.811Z,-5.40
2019-01-25T05:51:14.121Z,-5.30
2019-01-25T05:53:53.849Z,-5.40
2019-01-25T05:56:24.242Z,-5.40
2019-01-25T05:58:54.455Z,-5.40
2019-01-25T06:01:26.362Z,-5.40
2019-01-25T06:03:57.766Z,-5.40
2019-01-25T06:06:27.971Z,-5.40
2019-01-25T06:08:58.124Z,-5.40
2019-01-25T06:11:35.245Z,-5.50
2019-01-25T06:14:00.142Z,-5.40
2019-01-25T06:16:30.433Z,-5.50
2019-01-25T06:19:00.618Z,-5.40
2019-01-25T06:21:30.779Z,-5.50
2019-01-25T06:24:00.902Z,-5.40
2019-01-25T06:26:31.113Z,-5.50
2019-01-25T06:29:01.251Z,-5.50
2019-01-25T06:31:31.418Z,-5.40
2019-01-25T06:34:01.631Z,-5.40
2019-01-25T06:36:31.701Z,-5.40
2019-01-25T06:39:01.961Z,-5.40
2019-01-25T06:41:32.362Z,-5.40
2019-01-25T06:44:02.542Z,-5.40
2019-01-25T06:46:32.786Z,-5.40
2019-01-25T06:49:02.905Z,-5.40
2019-01-25T06:51:33.099Z,-5.40
2019-01-25T06:54:03.273Z,-5.30
2019-01-25T06:56:33.651Z,-5.30
2019-01-25T06:59:08.438Z,-5.30
2019-01-25T07:01:56.257Z,-5.30
2019-01-25T07:04:26.749Z,-5.20
2019-01-25T07:06:56.805Z,-5.30
2019-01-25T07:09:26.910Z,-5.30
2019-01-25T07:11:57.047Z,-5.30
2019-01-25T07:14:27.171Z,-5.20
2019-01-25T07:16:58.423Z,-5.20
2019-01-25T07:19:28.684Z,-5.20
2019-01-25T07:21:58.810Z,-5.20
2019-01-25T07:24:29.001Z,-5.20
2019-01-25T07:26:59.173Z,-5.20
2019-01-25T07:29:29.412Z,-5.10
2019-01-25T07:31:59.722Z,-5.10
2019-01-25T07:34:29.897Z,-5.10
2019-01-25T07:37:00.105Z,-5.10
2019-01-25T07:39:30.517Z,-5.10
2019-01-25T07:42:02.379Z,-5.10
2019-01-25T07:44:33.258Z,-5.10
2019-01-25T07:47:03.492Z,-5.10
2019-01-25T07:49:33.668Z,-5.00
2019-01-25T07:52:04.167Z,-5.10
2019-01-25T07:54:34.285Z,-5.00
2019-01-25T07:57:04.500Z,-5.00
2019-01-25T07:59:34.729Z,-5.00
2019-01-25T08:02:04.975Z,-4.90
2019-01-25T08:04:35.283Z,-4.90
2019-01-25T08:07:05.460Z,-4.90
2019-01-25T08:09:35.789Z,-4.90
2019-01-25T08:12:07.489Z,-4.80
2019-01-25T08:14:38.014Z,-4.90
2019-01-25T08:17:08.323Z,-4.80
2019-01-25T08:19:38.682Z,-4.80
2019-01-25T08:22:09.615Z,-4.70
2019-01-25T08:24:39.826Z,-4.60
2019-01-25T08:27:10.006Z,-4.60
2019-01-25T08:29:40.103Z,-4.60
2019-01-25T08:32:10.246Z,-4.60
2019-01-25T08:34:40.554Z,-4.60
2019-01-25T08:37:10.837Z,-4.60
2019-01-25T08:39:41.265Z,-4.70
2019-01-25T08:42:15.590Z,-4.60
2019-01-25T08:44:43.586Z,-4.60
2019-01-25T08:47:13.880Z,-4.50
2019-01-25T08:49:44.049Z,-4.50
2019-01-25T08:52:15.473Z,-4.50
2019-01-25T08:54:45.651Z,-4.40
2019-01-25T08:57:16.035Z,-4.40
2019-01-25T08:59:46.280Z,-4.30
2019-01-25T09:02:16.501Z,-4.30
2019-01-25T09:04:46.650Z,-4.20
2019-01-25T09:07:16.839Z,-4.20
2019-01-25T09:09:47.047Z,-4.10
2019-01-25T09:12:23.297Z,-4.00
2019-01-25T09:14:49.193Z,-4.00
2019-01-25T09:17:19.501Z,-4.00
2019-01-25T09:19:49.831Z,-3.90
2019-01-25T09:22:19.986Z,-3.80
2019-01-25T09:24:50.131Z,-3.80
2019-01-25T09:27:20.189Z,-3.90
2019-01-25T09:29:50.334Z,-4.00
2019-01-25T09:32:20.603Z,-3.90
2019-01-25T09:34:51.130Z,-4.00
2019-01-25T09:37:21.702Z,-4.00
2019-01-25T09:39:51.892Z,-4.00
2019-01-25T09:42:22.162Z,-4.10
2019-01-25T09:44:53.911Z,-4.20
2019-01-25T09:47:24.152Z,-4.20
2019-01-25T09:49:54.274Z,-4.30
2019-01-25T09:52:24.518Z,-4.20
2019-01-25T09:54:54.680Z,-4.20
2019-01-25T09:57:25.276Z,-4.10
2019-01-25T09:59:55.621Z,-4.10
2019-01-25T10:02:25.786Z,-4.20
2019-01-25T10:04:55.928Z,-4.20
2019-01-25T10:07:26.094Z,-4.30
2019-01-25T10:09:56.224Z,-4.30
2019-01-25T10:12:28.111Z,-4.30
2019-01-25T10:14:58.341Z,-4.30
2019-01-25T10:17:28.457Z,-4.40
2019-01-25T10:19:58.623Z,-4.30
2019-01-25T10:22:28.750Z,-4.30
2019-01-25T10:24:58.954Z,-4.20
2019-01-25T10:27:29.205Z,-4.40
2019-01-25T10:29:59.422Z,-4.40
2019-01-25T10:32:29.642Z,-4.40
2019-01-25T10:34:59.993Z,-4.40
2019-01-25T10:37:30.149Z,-4.30
2019-01-25T10:40:00.335Z,-4.20
2019-01-25T10:42:30.470Z,-4.20
2019-01-25T10:45:04.415Z,-4.10
2019-01-25T10:47:32.535Z,-4.10
2019-01-25T10:50:02.591Z,-4.10
2019-01-25T10:52:32.742Z,-4.00
2019-01-25T10:55:02.926Z,-4.00
2019-01-25T10:57:33.025Z,-4.00
2019-01-25T11:00:03.200Z,-4.00
2019-01-25T11:02:33.655Z,-4.10
2019-01-25T11:05:04.583Z,-4.00
2019-01-25T11:07:34.661Z,-4.00
2019-01-25T11:10:05.325Z,-3.90
2019-01-25T11:12:36.387Z,-3.70
2019-01-25T11:15:08.430Z,-3.80
2019-01-25T11:17:38.544Z,-3.70
2019-01-25T11:20:11.693Z,-3.80
2019-01-25T11:22:41.867Z,-3.70
2019-01-25T11:25:24.137Z,-3.70
2019-01-25T11:27:54.252Z,-3.50
2019-01-25T11:30:24.673Z,-3.50
2019-01-25T11:32:54.905Z,-3.50
2019-01-25T11:35:25.186Z,-3.30
2019-01-25T11:37:55.504Z,-3.30
2019-01-25T11:40:31.255Z,-3.30
2019-01-25T11:43:08.214Z,-3.40
2019-01-25T11:45:33.680Z,-3.60
2019-01-25T11:48:05.430Z,-3.80
2019-01-25T11:50:35.593Z,-3.80
2019-01-25T11:53:05.873Z,-3.80
2019-01-25T11:55:36.003Z,-3.80
2019-01-25T11:58:06.230Z,-3.90
2019-01-25T12:00:38.013Z,-3.90
2019-01-25T12:03:08.382Z,-3.80
2019-01-25T12:05:39.608Z,-3.60
2019-01-25T12:08:10.767Z,-3.60
2019-01-25T12:10:42.569Z,-3.70
2019-01-25T12:13:16.309Z,-3.80
2019-01-25T12:15:46.796Z,-3.70
2019-01-25T12:18:16.948Z,-3.60
2019-01-25T12:20:48.313Z,-3.70
2019-01-25T12:23:18.442Z,-3.80
2019-01-25T12:25:48.631Z,-3.60
2019-01-25T12:28:18.866Z,-3.50
2019-01-25T12:30:49.043Z,-3.50
2019-01-25T12:33:19.181Z,-3.60
2019-01-25T12:35:49.632Z,-3.60
2019-01-25T12:38:19.946Z,-3.60
2019-01-25T12:40:50.299Z,-3.60
2019-01-25T12:43:24.099Z,-3.60
2019-01-25T12:45:52.647Z,-3.60
2019-01-25T12:48:23.056Z,-3.70
2019-01-25T12:51:20.302Z,-3.70
2019-01-25T12:53:50.572Z,-3.70
2019-01-25T12:56:21.861Z,-3.80
2019-01-25T12:58:52.145Z,-3.80
2019-01-25T13:01:22.862Z,-3.80
2019-01-25T13:03:53.509Z,-3.80
2019-01-25T13:06:24.957Z,-3.80
2019-01-25T13:08:55.277Z,-3.80
2019-01-25T13:11:25.594Z,-3.80
2019-01-25T13:13:55.819Z,-3.90
2019-01-25T13:16:26.074Z,-4.00
2019-01-25T13:18:56.227Z,-3.90
2019-01-25T13:21:26.488Z,-3.90
2019-01-25T13:23:56.673Z,-3.90
2019-01-25T13:26:26.893Z,-3.90
2019-01-25T13:28:57.172Z,-4.00
2019-01-25T13:31:27.395Z,-4.00
2019-01-25T13:33:57.718Z,-4.00
2019-01-25T13:36:27.881Z,-4.00
2019-01-25T13:38:58.074Z,-3.80
2019-01-25T13:41:28.269Z,-3.80
2019-01-25T13:43:58.498Z,-3.90
2019-01-25T13:46:28.994Z,-3.90
2019-01-25T13:49:02.531Z,-3.90
2019-01-25T13:51:32.855Z,-3.90
2019-01-25T13:54:03.119Z,-3.90
2019-01-25T13:56:34.326Z,-3.90
2019-01-25T13:59:07.801Z,-3.90
2019-01-25T14:01:38.308Z,-3.90
2019-01-25T14:04:08.540Z,-4.00
2019-01-25T14:06:38.711Z,-3.90
2019-01-25T14:09:10.177Z,-4.00
2019-01-25T14:11:40.508Z,-4.00
2019-01-25T14:14:10.731Z,-4.00
2019-01-25T14:16:40.909Z,-4.10
2019-01-25T14:19:11.131Z,-4.10
2019-01-25T14:21:41.267Z,-4.20
2019-01-25T14:24:11.495Z,-4.20
2019-01-25T14:26:41.747Z,-4.20
2019-01-25T14:29:11.926Z,-4.20
2019-01-25T14:31:41.978Z,-4.30
2019-01-25T14:34:12.202Z,-4.30
2019-01-25T14:36:42.473Z,-4.30
2019-01-25T14:39:12.622Z,-4.30
2019-01-25T14:41:42.766Z,-4.30
2019-01-25T14:44:13.047Z,-4.30
2019-01-25T14:46:43.388Z,-4.40
2019-01-25T14:49:13.598Z,-4.40
2019-01-25T14:51:43.800Z,-4.40
2019-01-25T14:54:14.172Z,-4.40
2019-01-25T14:56:44.636Z,-4.40
2019-01-25T14:59:14.822Z,-4.40
2019-01-25T15:01:45.055Z,-4.40
2019-01-25T15:04:15.193Z,-4.40
2019-01-25T15:06:46.411Z,-4.40
2019-01-25T15:09:16.754Z,-4.50
2019-01-25T15:11:46.970Z,-4.50
2019-01-25T15:14:18.014Z,-4.50
2019-01-25T15:16:48.476Z,-4.50
2019-01-25T15:19:18.874Z,-4.50
2019-01-25T15:21:49.138Z,-4.50
2019-01-25T15:24:19.300Z,-4.50
2019-01-25T15:26:49.503Z,-4.50
2019-01-25T15:29:19.544Z,-4.50
2019-01-25T15:31:49.715Z,-4.50
2019-01-25T15:34:19.858Z,-4.50
2019-01-25T15:36:50.203Z,-4.50
2019-01-25T15:39:20.424Z,-4.50
2019-01-25T15:41:50.627Z,-4.50
2019-01-25T15:44:20.872Z,-4.40
2019-01-25T15:46:51.176Z,-4.40
2019-01-25T15:49:21.395Z,-4.40
2019-01-25T15:51:52.778Z,-4.40
2019-01-25T15:54:23.152Z,-4.40
2019-01-25T15:56:53.323Z,-4.40
2019-01-25T15:59:23.449Z,-4.50
2019-01-25T16:01:53.841Z,-4.50
2019-01-25T16:04:24.504Z,-4.50
2019-01-25T16:06:54.888Z,-4.40
2019-01-25T16:09:25.403Z,-4.40
2019-01-25T16:11:55.950Z,-4.50
2019-01-25T16:14:27.558Z,-4.50
2019-01-25T16:16:57.759Z,-4.50
2019-01-25T16:19:29.397Z,-4.50
2019-01-25T16:22:00.491Z,-4.50
2019-01-25T16:24:31.258Z,-4.50
2019-01-25T16:27:01.772Z,-4.50
2019-01-25T16:29:32.502Z,-4.50
2019-01-25T16:32:02.697Z,-4.50
2019-01-25T16:34:33.950Z,-4.50
2019-01-25T16:37:05.372Z,-4.50
2019-01-25T16:39:36.036Z,-4.50
2019-01-25T16:42:10.372Z,-4.50
2019-01-25T16:44:41.069Z,-4.50
2019-01-25T16:47:11.267Z,-4.50
2019-01-25T16:49:47.106Z,-4.50
2019-01-25T16:52:17.787Z,-4.50
2019-01-25T16:55:17.732Z,-4.50
2019-01-25T16:57:49.756Z,-4.50
2019-01-25T17:00:28.870Z,-4.50
2019-01-25T17:03:06.654Z,-4.60
2019-01-25T17:05:38.207Z,-4.60
2019-01-25T17:08:09.165Z,-4.60
2019-01-25T17:10:41.050Z,-4.60
2019-01-25T17:13:12.330Z,-4.60
2019-01-25T17:15:42.645Z,-4.60
2019-01-25T17:18:14.102Z,-4.60
2019-01-25T17:20:44.431Z,-4.60
2019-01-25T17:23:14.601Z,-4.60
2019-01-25T17:25:44.910Z,-4.60
2019-01-25T17:28:15.135Z,-4.60
2019-01-25T17:30:45.439Z,-4.60
2019-01-25T17:33:15.616Z,-4.60
2019-01-25T17:35:45.930Z,-4.60
2019-01-25T17:38:16.255Z,-4.60
2019-01-25T17:40:47.287Z,-4.60
2019-01-25T17:43:17.586Z,-4.70
2019-01-25T17:45:47.820Z,-4.60
2019-01-25T17:48:20.525Z,-4.60
2019-01-25T17:50:51.001Z,-4.60
2019-01-25T17:53:21.372Z,-4.70
2019-01-25T17:55:51.712Z,-4.70
2019-01-25T17:58:21.955Z,-4.70
2019-01-25T18:00:54.913Z,-4.70
2019-01-25T18:03:25.408Z,-4.70
2019-01-25T18:05:55.696Z,-4.70
2019-01-25T18:08:26.063Z,-4.70
2019-01-25T18:10:56.303Z,-4.70
2019-01-25T18:13:26.426Z,-4.70
2019-01-25T18:15:56.551Z,-4.70
2019-01-25T18:18:26.799Z,-4.70
2019-01-25T18:20:56.977Z,-4.70
2019-01-25T18:23:27.463Z,-4.60
2019-01-25T18:26:05.019Z,-4.60
2019-01-25T18:28:50.431Z,-4.60
2019-01-25T18:31:22.524Z,-4.60
2019-01-25T18:33:52.741Z,-4.60
2019-01-25T18:36:22.945Z,-4.60
2019-01-25T18:38:53.111Z,-4.70
2019-01-25T18:41:23.415Z,-4.70
2019-01-25T18:43:53.617Z,-4.70
2019-01-25T18:46:23.771Z,-4.70
2019-01-25T18:48:53.908Z,-4.70
2019-01-25T18:51:24.104Z,-4.70
2019-01-25T18:53:54.178Z,-4.60
2019-01-25T18:56:25.963Z,-4.60
2019-01-25T18:58:56.261Z,-4.60
2019-01-25T19:01:26.408Z,-4.60
2019-01-25T19:03:56.680Z,-4.70
2019-01-25T19:06:26.941Z,-4.70
2019-01-25T19:08:57.343Z,-4.70
2019-01-25T19:11:27.511Z,-4.70
2019-01-25T19:13:58.744Z,-4.70
2019-01-25T19:16:29.124Z,-4.70
2019-01-25T19:18:59.301Z,-4.70
2019-01-25T19:21:29.537Z,-4.70
2019-01-25T19:23:59.740Z,-4.70
2019-01-25T19:26:29.916Z,-4.60
2019-01-25T19:29:00.337Z,-4.60
2019-01-25T19:31:30.652Z,-4.60
2019-01-25T19:34:00.846Z,-4.60
2019-01-25T19:36:31.223Z,-4.60
2019-01-25T19:39:01.454Z,-4.60
2019-01-25T19:41:33.397Z,-4.70
2019-01-25T19:44:03.626Z,-4.70
2019-01-25T19:46:34.010Z,-4.80
2019-01-25T19:49:04.597Z,-4.70
2019-01-25T19:51:34.841Z,-4.80
2019-01-25T19:54:06.679Z,-4.80
2019-01-25T19:56:37.018Z,-4.80
2019-01-25T19:59:07.857Z,-4.80
2019-01-25T20:01:38.074Z,-4.80
2019-01-25T20:04:09.227Z,-4.70
2019-01-25T20:06:39.530Z,-4.70
2019-01-25T20:09:10.835Z,-4.70
2019-01-25T20:11:41.283Z,-4.70
2019-01-25T20:14:11.877Z,-4.70
2019-01-25T20:16:42.223Z,-4.70
2019-01-25T20:19:12.594Z,-4.70
2019-01-25T20:21:42.776Z,-4.80
2019-01-25T20:24:15.708Z,-4.70
2019-01-25T20:26:45.908Z,-4.70
2019-01-25T20:29:16.278Z,-4.70
2019-01-25T20:31:46.554Z,-4.80
2019-01-25T20:34:16.785Z,-4.80
2019-01-25T20:36:47.157Z,-4.80
2019-01-25T20:39:18.740Z,-4.70
2019-01-25T20:41:48.914Z,-4.70
2019-01-25T20:44:19.075Z,-4.70
2019-01-25T20:46:49.450Z,-4.70
2019-01-25T20:49:19.884Z,-4.70
2019-01-25T20:51:50.275Z,-4.60
2019-01-25T20:54:20.487Z,-4.60
2019-01-25T20:56:50.758Z,-4.60
2019-01-25T20:59:21.163Z,-4.60
2019-01-25T21:01:51.398Z,-4.60
2019-01-25T21:04:22.593Z,-4.60
2019-01-25T21:06:54.013Z,-4.60
2019-01-25T21:09:24.310Z,-4.70
2019-01-25T21:11:54.532Z,-4.60
2019-01-25T21:14:24.712Z,-4.70
2019-01-25T21:16:54.958Z,-4.70
2019-01-25T21:19:25.503Z,-4.80
2019-01-25T21:21:55.791Z,-4.70
2019-01-25T21:24:26.061Z,-4.80
2019-01-25T21:26:56.266Z,-4.80
2019-01-25T21:29:26.670Z,-4.90
2019-01-25T21:31:56.910Z,-4.90
2019-01-25T21:34:27.054Z,-4.90
2019-01-25T21:36:57.407Z,-4.90
2019-01-25T21:39:27.517Z,-4.90
2019-01-25T21:41:57.793Z,-5.00
2019-01-25T21:44:28.097Z,-5.10
2019-01-25T21:46:58.524Z,-5.10
2019-01-25T21:49:28.703Z,-5.20
2019-01-25T21:52:01.342Z,-5.30
2019-01-25T21:54:33.518Z,-5.30
2019-01-25T21:57:03.786Z,-5.40
2019-01-25T21:59:37.142Z,-5.40
2019-01-25T22:02:07.374Z,-5.40
2019-01-25T22:04:37.694Z,-5.40
2019-01-25T22:07:07.851Z,-5.50
2019-01-25T22:09:38.954Z,-5.60
2019-01-25T22:12:09.122Z,-5.60
2019-01-25T22:14:39.332Z,-5.70
2019-01-25T22:17:09.519Z,-5.70
2019-01-25T22:19:39.670Z,-5.80
2019-01-25T22:22:10.081Z,-5.80
2019-01-25T22:24:40.273Z,-5.90
2019-01-25T22:27:10.414Z,-5.90
2019-01-25T22:29:40.638Z,-5.90
2019-01-25T22:32:10.858Z,-6.00
2019-01-25T22:34:41.187Z,-6.00
2019-01-25T22:37:11.394Z,-6.10
2019-01-25T22:39:41.632Z,-6.00
2019-01-25T22:42:11.909Z,-6.00
2019-01-25T22:44:42.098Z,-5.90
2019-01-25T22:47:12.374Z,-5.90
2019-01-25T22:49:42.703Z,-5.80
2019-01-25T22:52:12.890Z,-5.80
2019-01-25T22:54:42.993Z,-5.70
2019-01-25T22:57:13.208Z,-5.70
2019-01-25T22:59:43.409Z,-5.70
2019-01-25T23:02:13.740Z,-5.70
2019-01-25T23:05:12.031Z,-5.70
2019-01-25T23:07:42.209Z,-5.60
2019-01-25T23:10:22.839Z,-5.60
2019-01-25T23:12:53.194Z,-5.60
2019-01-25T23:15:23.427Z,-5.60
2019-01-25T23:17:53.636Z,-5.60
2019-01-25T23:20:23.854Z,-5.60
2019-01-25T23:22:54.014Z,-5.50
2019-01-25T23:25:24.223Z,-5.50
2019-01-25T23:27:54.451Z,-5.50
2019-01-25T23:30:24.757Z,-5.50
2019-01-25T23:32:54.944Z,-5.50
2019-01-25T23:35:25.088Z,-5.50
2019-01-25T23:37:55.233Z,-5.50
2019-01-25T23:40:25.429Z,-5.50
2019-01-25T23:42:55.553Z,-5.50
2019-01-25T23:45:25.743Z,-5.50
2019-01-25T23:47:56.195Z,-5.40
2019-01-25T23:50:26.430Z,-5.40
2019-01-25T23:52:56.663Z,-5.40
2019-01-25T23:55:27.817Z,-5.40
2019-01-25T23:57:57.929Z,-5.40
